Time;durP1;ratioP1;P1;durP2;ratioP2;P2;SDS_P1;SDS_P2;PMS_P1;PMS_P2;Temp;Humidity;BMP_temperature;BMP_pressure;BME280_temperature;BME280_humidity;BME280_pressure;Samples;Min_cycle;Max_cycle;Signal;HPM_P1;HPM_P2
2023/05/26 00:02:19;;;;;;;13.80;9.55;;;;;;;14.42;85.84;100286.44;5114710;28;20031;-77
2023/05/26 00:04:44;;;;;;;14.40;10.38;;;;;;;14.51;86.00;100306.09;5114801;28;20118;-77
2023/05/26 00:07:10;;;;;;;13.35;9.95;;;;;;;14.39;86.22;100294.44;5114735;28;20103;-77
2023/05/26 00:09:36;;;;;;;17.30;10.88;;;;;;;14.33;86.18;100279.06;5114568;28;20471;-77
2023/05/26 00:12:01;;;;;;;14.93;10.10;;;;;;;14.38;86.73;100306.72;5114879;28;20084;-77
2023/05/26 00:14:27;;;;;;;14.98;9.93;;;;;;;14.22;86.81;100285.69;5114311;28;20048;-77
2023/05/26 00:16:53;;;;;;;14.77;10.90;;;;;;;14.21;87.05;100285.78;5114800;28;20395;-77
2023/05/26 00:19:21;;;;;;;19.42;11.00;;;;;;;14.27;87.15;100295.09;5114224;28;20019;-77
2023/05/26 00:21:46;;;;;;;16.55;10.73;;;;;;;14.21;87.32;100298.88;5114471;28;20051;-77
2023/05/26 00:24:12;;;;;;;18.67;10.98;;;;;;;14.12;87.82;100281.00;5114478;28;20055;-77
2023/05/26 00:26:37;;;;;;;14.93;9.82;;;;;;;14.16;87.66;100280.78;5114487;28;20019;-74
2023/05/26 00:29:02;;;;;;;16.80;11.18;;;;;;;14.13;87.87;100299.25;5114307;28;20106;-74
2023/05/26 00:31:29;;;;;;;18.73;11.38;;;;;;;14.08;88.46;100282.09;5114052;28;20027;-74
2023/05/26 00:33:55;;;;;;;18.42;12.05;;;;;;;14.02;88.17;100280.63;5114157;28;20035;-74
2023/05/26 00:36:20;;;;;;;12.27;10.65;;;;;;;14.13;88.41;100301.88;5113871;28;20387;-75
2023/05/26 00:38:45;;;;;;;19.35;11.77;;;;;;;14.09;88.81;100302.13;5114337;28;20072;-75
2023/05/26 00:41:11;;;;;;;15.25;10.88;;;;;;;13.95;88.89;100284.47;5114304;28;20107;-74
2023/05/26 00:43:36;;;;;;;17.35;11.00;;;;;;;13.93;89.18;100287.16;5113749;28;20032;-75
2023/05/26 00:46:02;;;;;;;17.15;11.50;;;;;;;14.00;89.45;100303.44;5114336;28;20020;-74
2023/05/26 00:48:27;;;;;;;15.45;12.45;;;;;;;14.01;89.27;100304.28;5113764;28;20072;-74
2023/05/26 00:50:53;;;;;;;18.00;11.68;;;;;;;13.91;89.47;100306.50;5114196;28;20383;-74
2023/05/26 00:53:18;;;;;;;15.82;11.68;;;;;;;13.87;90.09;100305.81;5113397;28;20034;-74
2023/05/26 00:55:46;;;;;;;18.83;12.73;;;;;;;13.72;90.13;100289.06;5113962;28;20073;-75
2023/05/26 00:58:11;;;;;;;20.48;13.02;;;;;;;13.81;90.44;100300.88;5113867;28;20054;-74
2023/05/26 01:00:37;;;;;;;17.58;13.20;;;;;;;13.78;90.59;100306.28;5113431;28;20483;-74
2023/05/26 01:03:04;;;;;;;17.40;13.10;;;;;;;13.61;90.59;100274.81;5113730;28;20034;-74
2023/05/26 01:05:29;;;;;;;17.15;12.25;;;;;;;13.78;90.81;100302.78;5113317;28;20053;-74
2023/05/26 01:07:54;;;;;;;16.33;12.70;;;;;;;13.59;90.83;100281.91;5113618;28;20459;-74
2023/05/26 01:10:20;;;;;;;16.85;12.48;;;;;;;13.67;91.24;100303.31;5113497;28;20066;-74
2023/05/26 01:13:00;;;;;;;21.30;12.27;;;;;;;13.61;91.77;100311.47;5113531;28;20038;-74
2023/05/26 01:15:32;;;;;;;21.92;13.82;;;;;;;13.41;92.17;100279.28;5113028;28;20044;-74
2023/05/26 01:18:06;;;;;;;20.70;14.13;;;;;;;13.53;92.41;100305.78;5113336;28;20031;-74
2023/05/26 01:20:38;;;;;;;17.77;12.05;;;;;;;13.31;92.78;100285.00;5077756;28;20040;-74
2023/05/26 01:23:10;;;;;;;20.08;13.65;;;;;;;13.46;93.19;100316.53;5113322;28;20038;-75
2023/05/26 01:26:12;;;;;;;19.83;13.32;;;;;;;13.40;93.31;100308.97;5113395;28;20039;-74
2023/05/26 01:28:42;;;;;;;16.40;12.65;;;;;;;13.36;93.52;100309.19;5112892;28;20031;-74
2023/05/26 01:31:08;;;;;;;20.35;13.02;;;;;;;13.32;93.47;100289.34;5112904;28;20028;-74
2023/05/26 01:33:35;;;;;;;22.45;13.43;;;;;;;13.41;93.46;100300.19;5113109;28;20036;-74
2023/05/26 01:36:00;;;;;;;18.95;13.38;;;;;;;13.26;93.93;100280.00;5113164;28;20061;-74
2023/05/26 01:38:26;;;;;;;18.80;13.55;;;;;;;13.28;93.82;100267.69;5112729;28;20100;-75
2023/05/26 01:41:00;;;;;;;18.55;13.05;;;;;;;13.35;93.60;100274.31;5112875;28;20024;-74
2023/05/26 01:43:39;;;;;;;17.42;12.52;;;;;;;13.44;93.97;100307.91;5112640;28;20420;-75
2023/05/26 01:46:29;;;;;;;19.20;13.32;;;;;;;13.28;93.79;100278.16;5112793;28;20360;-75
2023/05/26 01:48:57;;;;;;;18.67;13.02;;;;;;;13.42;93.93;100296.66;5112628;28;20042;-74
2023/05/26 01:51:23;;;;;;;27.50;13.95;;;;;;;13.40;94.15;100292.41;5112381;28;20474;-74
2023/05/26 01:53:53;;;;;;;24.20;12.90;;;;;;;13.42;93.96;100291.44;5112511;28;20034;-74
2023/05/26 01:56:19;;;;;;;16.65;12.68;;;;;;;13.24;94.30;100266.16;5094218;28;20111;-75
2023/05/26 01:58:46;;;;;;;17.27;12.05;;;;;;;13.43;94.28;100297.50;5112766;28;20119;-75
2023/05/26 02:01:11;;;;;;;24.33;14.43;;;;;;;13.30;94.58;100275.47;5112510;28;20535;-74
2023/05/26 02:03:37;;;;;;;17.95;13.40;;;;;;;13.27;94.37;100265.13;5112393;28;20038;-74
2023/05/26 02:06:02;;;;;;;18.10;13.23;;;;;;;13.38;94.88;100297.72;5112505;28;20032;-75
2023/05/26 02:08:29;;;;;;;18.88;13.30;;;;;;;13.34;94.94;100290.94;5112522;28;20055;-74
2023/05/26 02:10:54;;;;;;;17.90;13.27;;;;;;;13.23;95.09;100283.63;5112639;28;20393;-74
2023/05/26 02:13:19;;;;;;;20.23;12.27;;;;;;;13.35;95.47;100297.03;5112137;28;20111;-77
2023/05/26 02:15:45;;;;;;;21.15;12.98;;;;;;;13.31;95.30;100303.31;5112647;28;20020;-77
2023/05/26 02:18:10;;;;;;;20.83;12.70;;;;;;;13.24;95.61;100297.53;5112745;28;20027;-75
2023/05/26 02:20:36;;;;;;;21.77;13.57;;;;;;;13.17;96.08;100298.72;5112075;28;20359;-75
2023/05/26 02:23:02;;;;;;;22.05;12.50;;;;;;;13.07;96.09;100290.47;5094329;28;20028;-75
2023/05/26 02:25:27;;;;;;;21.55;12.55;;;;;;;13.07;96.28;100284.38;5112189;28;20031;-75
2023/05/26 02:27:52;;;;;;;19.85;12.90;;;;;;;13.17;96.42;100309.19;5112324;28;20023;-75
2023/05/26 02:30:18;;;;;;;19.08;12.32;;;;;;;13.09;96.64;100299.06;5112363;28;20111;-75
2023/05/26 02:32:43;;;;;;;21.88;14.02;;;;;;;13.06;96.33;100282.66;5111936;28;20546;-75
2023/05/26 02:35:09;;;;;;;26.92;14.10;;;;;;;13.12;96.57;100296.31;5112166;28;20019;-75
2023/05/26 02:37:35;;;;;;;19.77;11.85;;;;;;;13.10;96.44;100295.53;5112147;28;20031;-75
2023/05/26 02:40:00;;;;;;;18.98;13.48;;;;;;;13.27;96.32;100309.63;5112322;28;20451;-75
2023/05/26 02:42:25;;;;;;;17.90;12.82;;;;;;;13.19;96.15;100292.50;5112182;28;20379;-75
2023/05/26 02:44:50;;;;;;;17.77;12.43;;;;;;;13.18;95.90;100297.78;5116437;28;20029;-75
2023/05/26 02:47:16;;;;;;;20.10;12.40;;;;;;;13.14;95.85;100293.63;5116446;28;20083;-75
2023/05/26 02:49:42;;;;;;;23.25;13.30;;;;;;;13.10;95.65;100281.59;5116077;28;20107;-75
2023/05/26 02:52:08;;;;;;;18.95;12.13;;;;;;;13.23;95.43;100295.81;5116381;28;20161;-75
2023/05/26 02:54:33;;;;;;;19.27;11.75;;;;;;;13.33;95.44;100322.41;5116071;28;20024;-75
2023/05/26 02:56:58;;;;;;;23.65;13.30;;;;;;;13.20;95.14;100299.41;5116287;28;20024;-75
2023/05/26 02:59:24;;;;;;;17.92;12.50;;;;;;;13.16;95.40;100297.03;5115997;28;20627;-75
2023/05/26 03:01:50;;;;;;;17.98;12.88;;;;;;;13.36;95.47;100327.53;5115969;28;20474;-75
2023/05/26 03:04:15;;;;;;;17.83;11.48;;;;;;;13.33;95.33;100323.25;5115894;28;20024;-75
2023/05/26 03:06:41;;;;;;;19.00;11.95;;;;;;;13.28;95.51;100316.56;5115899;28;20031;-75
2023/05/26 03:09:07;;;;;;;22.27;13.20;;;;;;;13.35;95.06;100317.94;5116031;28;20080;-75
2023/05/26 03:11:32;;;;;;;17.92;11.48;;;;;;;13.26;95.41;100297.47;5115786;28;20036;-75
2023/05/26 03:13:57;;;;;;;20.33;12.18;;;;;;;13.27;95.32;100301.75;5115778;28;20407;-75
2023/05/26 03:16:23;;;;;;;26.42;13.90;;;;;;;13.24;95.42;100294.94;5097245;28;20028;-75
2023/05/26 03:18:49;;;;;;;20.20;11.90;;;;;;;13.22;95.41;100300.22;5115535;28;20035;-75
2023/05/26 03:21:16;;;;;;;22.77;13.30;;;;;;;13.17;95.44;100299.56;5115869;28;20604;-75
2023/05/26 03:23:41;;;;;;;22.65;14.07;;;;;;;13.32;95.42;100300.66;5115500;28;20034;-75
2023/05/26 03:26:06;;;;;;;22.85;12.57;;;;;;;13.34;95.29;100324.94;5115691;28;20095;-75
2023/05/26 03:28:32;;;;;;;22.30;12.25;;;;;;;13.16;95.28;100304.88;5115319;28;20112;-75
2023/05/26 03:30:58;;;;;;;22.10;12.32;;;;;;;13.23;95.30;100325.47;5115506;28;20015;-75
2023/05/26 03:33:23;;;;;;;27.40;13.02;;;;;;;13.06;95.59;100308.81;5115087;28;20126;-75
2023/05/26 03:35:48;;;;;;;21.00;12.90;;;;;;;13.05;96.01;100317.59;5115342;28;20023;-75
2023/05/26 03:38:13;;;;;;;24.05;12.80;;;;;;;13.05;95.65;100304.50;5115412;28;20282;-75
2023/05/26 03:40:39;;;;;;;17.83;11.05;;;;;;;12.96;95.61;100308.41;5115093;28;20107;-75
2023/05/26 03:43:04;;;;;;;21.40;13.00;;;;;;;13.04;95.34;100319.34;5115379;28;20517;-75
2023/05/26 03:45:30;;;;;;;18.95;12.27;;;;;;;12.98;95.28;100302.19;5115029;28;20529;-75
2023/05/26 03:47:55;;;;;;;24.55;11.88;;;;;;;13.04;95.12;100313.28;5115065;28;20036;-75
2023/05/26 03:50:20;;;;;;;17.27;12.25;;;;;;;13.14;95.21;100336.31;5115061;28;20024;-75
2023/05/26 03:52:46;;;;;;;18.00;11.43;;;;;;;13.20;95.03;100338.66;5114699;28;20019;-75
2023/05/26 03:55:11;;;;;;;21.77;10.95;;;;;;;13.29;94.76;100336.56;5114501;28;20072;-75
2023/05/26 03:57:37;;;;;;;16.67;10.95;;;;;;;13.26;93.75;100316.63;5114726;28;20028;-75
2023/05/26 04:00:06;;;;;;;16.42;10.55;;;;;;;13.32;93.58;100321.56;5115026;28;20019;-75
2023/05/26 04:02:31;;;;;;;21.30;11.65;;;;;;;13.64;92.93;100340.13;5114645;28;20031;-75
2023/05/26 04:04:56;;;;;;;17.50;11.30;;;;;;;13.58;92.29;100319.47;5114925;28;20387;-75
2023/05/26 04:07:22;;;;;;;18.58;10.05;;;;;;;14.06;91.62;100352.88;5114924;28;20027;-75
2023/05/26 04:09:47;;;;;;;17.65;10.95;;;;;;;14.75;88.60;100344.16;5114620;28;20032;-75
2023/05/26 04:12:13;;;;;;;20.08;11.88;;;;;;;15.81;83.18;100325.22;5114823;28;20019;-75
2023/05/26 04:14:38;;;;;;;18.65;10.50;;;;;;;16.79;78.45;100330.78;5114222;28;20052;-75
2023/05/26 04:17:04;;;;;;;15.45;8.75;;;;;;;17.38;75.59;100347.25;5114641;28;20030;-75
2023/05/26 04:19:29;;;;;;;15.70;9.43;;;;;;;17.42;74.88;100345.25;5114256;28;20023;-75
2023/05/26 04:21:54;;;;;;;17.98;9.85;;;;;;;17.10;76.11;100329.69;5114489;28;20066;-75
2023/05/26 04:24:20;;;;;;;18.20;9.15;;;;;;;16.94;76.55;100329.00;5114422;28;20505;-75
2023/05/26 04:26:45;;;;;;;16.40;8.57;;;;;;;17.00;76.45;100323.34;5114236;28;20570;-75
2023/05/26 04:29:11;;;;;;;15.35;8.38;;;;;;;17.03;76.30;100352.09;5114306;28;20036;-75
2023/05/26 04:31:40;;;;;;;15.93;10.13;;;;;;;16.98;75.35;100348.91;5113872;28;20020;-75
2023/05/26 04:34:06;;;;;;;17.55;8.85;;;;;;;16.91;75.28;100337.06;5114146;28;20468;-75
2023/05/26 04:36:32;;;;;;;14.32;9.35;;;;;;;17.46;74.05;100336.22;5114453;28;20027;-75
2023/05/26 04:38:58;;;;;;;18.00;8.82;;;;;;;17.83;72.35;100353.16;5114288;28;20135;-75
2023/05/26 04:41:24;;;;;;;14.25;8.65;;;;;;;17.58;72.95;100338.06;5114235;28;20072;-75
2023/05/26 04:43:49;;;;;;;15.77;9.15;;;;;;;17.81;72.38;100351.56;5113624;28;20080;-75
2023/05/26 04:46:16;;;;;;;15.70;8.77;;;;;;;17.85;73.17;100358.31;5113862;28;20027;-76
2023/05/26 04:48:42;;;;;;;18.08;8.80;;;;;;;17.99;71.98;100355.59;5113635;28;20447;-76
2023/05/26 04:51:07;;;;;;;16.98;7.57;;;;;;;18.18;71.08;100356.06;5114005;28;20063;-75
2023/05/26 04:53:33;;;;;;;14.30;8.13;;;;;;;18.44;69.65;100342.91;5113550;28;20093;-75
2023/05/26 04:56:01;;;;;;;18.25;8.50;;;;;;;19.25;67.34;100354.91;5113840;28;20023;-75
2023/05/26 04:58:26;;;;;;;18.73;8.27;;;;;;;20.06;64.60;100330.50;5113905;28;20080;-75
2023/05/26 05:00:53;;;;;;;13.63;7.82;;;;;;;20.58;62.47;100334.47;5113560;28;20020;-75
2023/05/26 05:03:20;;;;;;;14.60;7.85;;;;;;;20.78;61.90;100354.09;5113844;28;20023;-75
2023/05/26 05:05:45;;;;;;;17.08;7.40;;;;;;;20.31;62.71;100342.69;5112732;28;20024;-75
2023/05/26 05:08:11;;;;;;;18.02;7.90;;;;;;;19.91;64.18;100338.59;5113730;28;20068;-75
2023/05/26 05:10:36;;;;;;;16.83;7.65;;;;;;;19.72;64.32;100348.00;5113315;28;20019;-75
2023/05/26 05:13:03;;;;;;;18.90;7.32;;;;;;;19.72;64.64;100361.22;5113450;28;20023;-75
2023/05/26 05:15:28;;;;;;;15.82;8.15;;;;;;;20.02;64.07;100368.69;5112919;28;20044;-76
2023/05/26 05:17:54;;;;;;;19.50;7.75;;;;;;;20.53;61.90;100350.72;5113694;28;20026;-76
2023/05/26 05:20:19;;;;;;;17.00;6.50;;;;;;;21.33;59.71;100353.25;5113545;28;20456;-76
2023/05/26 05:22:45;;;;;;;16.15;6.82;;;;;;;22.33;57.34;100372.47;5113029;28;20031;-76
2023/05/26 05:25:10;;;;;;;12.98;6.13;;;;;;;22.21;55.76;100360.22;5113330;28;20102;-76
2023/05/26 05:27:36;;;;;;;17.60;7.45;;;;;;;21.91;56.25;100388.28;5113175;28;20023;-76
2023/05/26 05:30:01;;;;;;;17.80;6.53;;;;;;;21.50;56.33;100364.31;5113105;28;20051;-76
2023/05/26 05:32:26;;;;;;;12.38;6.13;;;;;;;21.39;56.20;100367.81;5113391;28;20031;-76
2023/05/26 05:34:52;;;;;;;17.77;6.57;;;;;;;21.41;53.93;100385.28;5112736;28;20398;-76
2023/05/26 05:37:17;;;;;;;16.45;6.30;;;;;;;21.35;54.75;100408.78;5113014;28;20022;-76
2023/05/26 05:39:42;;;;;;;16.40;6.15;;;;;;;21.71;54.40;100407.63;5112869;28;20031;-76
2023/05/26 05:42:08;;;;;;;14.82;5.90;;;;;;;22.28;52.99;100403.81;5112964;28;20090;-76
2023/05/26 05:44:33;;;;;;;15.77;6.85;;;;;;;22.02;52.93;100379.44;5112656;28;20467;-76
2023/05/26 05:46:58;;;;;;;16.48;6.32;;;;;;;21.97;53.65;100421.41;5112623;28;20027;-76
2023/05/26 05:49:24;;;;;;;12.68;6.28;;;;;;;21.81;54.59;100420.97;5113230;28;20186;-76
2023/05/26 05:51:49;;;;;;;16.92;6.38;;;;;;;21.86;56.28;100421.44;5112646;28;20417;-76
2023/05/26 05:54:14;;;;;;;16.83;6.97;;;;;;;22.29;54.97;100413.50;5112693;28;20110;-76
2023/05/26 05:56:40;;;;;;;17.33;6.53;;;;;;;22.56;53.51;100397.03;5113324;28;20055;-77
2023/05/26 05:59:05;;;;;;;20.52;7.15;;;;;;;23.29;53.05;100419.09;5112513;28;20027;-76
2023/05/26 06:01:30;;;;;;;17.83;7.13;;;;;;;24.18;51.01;100403.16;5112331;28;20028;-76
2023/05/26 06:03:56;;;;;;;12.27;6.40;;;;;;;24.79;50.26;100428.63;5112770;28;20413;-76
2023/05/26 06:06:21;;;;;;;15.80;6.95;;;;;;;24.61;49.28;100399.25;5112588;28;20023;-76
2023/05/26 06:08:46;;;;;;;18.38;7.47;;;;;;;24.30;50.43;100410.03;5112414;28;20161;-76
2023/05/26 06:11:12;;;;;;;14.55;6.40;;;;;;;24.60;50.91;100424.19;5112590;28;20307;-76
2023/05/26 06:13:37;;;;;;;13.93;6.55;;;;;;;25.22;49.13;100416.59;5111998;28;20051;-76
2023/05/26 06:16:03;;;;;;;15.38;6.50;;;;;;;26.01;47.63;100416.00;5112295;28;20030;-77
2023/05/26 06:18:28;;;;;;;14.20;6.45;;;;;;;26.71;46.49;100426.78;5112359;28;20020;-76
2023/05/26 06:20:53;;;;;;;12.82;6.10;;;;;;;26.97;46.61;100426.75;5112291;28;20043;-77
2023/05/26 06:23:19;;;;;;;16.73;6.45;;;;;;;26.90;45.90;100417.72;5112297;28;20074;-77
2023/05/26 06:25:44;;;;;;;13.75;6.28;;;;;;;27.08;45.26;100429.16;5112262;28;20027;-77
2023/05/26 06:28:09;;;;;;;16.25;6.50;;;;;;;27.31;44.34;100406.25;5112277;28;20023;-77
2023/05/26 06:30:35;;;;;;;14.45;6.35;;;;;;;27.80;43.30;100427.81;5111973;28;20023;-77
2023/05/26 06:33:00;;;;;;;12.68;5.70;;;;;;;28.39;42.83;100418.88;5112455;28;20088;-77
2023/05/26 06:35:25;;;;;;;13.98;6.32;;;;;;;29.35;41.93;100410.78;5112775;28;20027;-77
2023/05/26 06:37:51;;;;;;;14.35;5.95;;;;;;;30.26;41.35;100418.16;5112112;28;20076;-77
2023/05/26 06:40:16;;;;;;;11.95;5.40;;;;;;;31.15;40.69;100430.91;5112189;28;20073;-77
2023/05/26 06:42:42;;;;;;;13.25;6.00;;;;;;;31.96;39.67;100420.94;5111941;28;20031;-77
2023/05/26 06:45:07;;;;;;;13.98;6.63;;;;;;;32.70;37.35;100423.25;5112086;28;20379;-77
2023/05/26 06:47:33;;;;;;;11.85;6.43;;;;;;;33.03;36.62;100421.63;5112145;28;20032;-77
2023/05/26 06:49:58;;;;;;;14.38;6.05;;;;;;;33.01;36.88;100444.47;5112052;28;20592;-77
2023/05/26 06:52:23;;;;;;;16.17;7.05;;;;;;;32.74;36.65;100436.16;5112145;28;20036;-77
2023/05/26 06:54:49;;;;;;;12.50;6.07;;;;;;;32.74;36.11;100430.78;5111633;28;20030;-77
2023/05/26 06:57:14;;;;;;;11.52;6.05;;;;;;;32.83;36.44;100426.06;5111999;28;20489;-77
2023/05/26 06:59:41;;;;;;;13.80;6.80;;;;;;;33.18;35.93;100421.50;5093414;28;20034;-77
2023/05/26 07:02:06;;;;;;;10.95;6.03;;;;;;;33.48;35.51;100429.34;5112199;28;20028;-77
2023/05/26 07:04:32;;;;;;;13.60;6.93;;;;;;;33.37;35.36;100409.09;5111885;28;20030;-77
2023/05/26 07:06:57;;;;;;;15.20;6.15;;;;;;;33.87;35.09;100436.72;5111754;28;20110;-77
2023/05/26 07:09:22;;;;;;;13.25;6.10;;;;;;;34.12;34.10;100423.47;5111938;28;20023;-77
2023/05/26 07:11:48;;;;;;;12.57;5.93;;;;;;;33.87;34.06;100433.19;5112242;28;20034;-77
2023/05/26 07:14:13;;;;;;;13.02;5.60;;;;;;;33.29;34.75;100430.91;5111708;28;20055;-77
2023/05/26 07:16:38;;;;;;;10.88;5.65;;;;;;;33.30;35.09;100416.38;5111896;28;20044;-77
2023/05/26 07:19:04;;;;;;;12.88;6.63;;;;;;;33.01;34.79;100437.19;5111965;28;20651;-77
2023/05/26 07:21:29;;;;;;;13.27;6.10;;;;;;;32.43;34.96;100414.13;5111795;28;20499;-77
2023/05/26 07:23:55;;;;;;;14.85;6.68;;;;;;;32.61;34.57;100425.25;5093124;28;20035;-77
2023/05/26 07:26:21;;;;;;;14.68;5.85;;;;;;;32.89;34.89;100417.16;5108028;28;20372;-77
2023/05/26 07:28:48;;;;;;;11.95;5.43;;;;;;;33.50;34.69;100436.22;5099323;28;20020;-77
2023/05/26 07:31:13;;;;;;;15.00;6.15;;;;;;;33.41;34.29;100429.28;5105621;28;20039;-77
2023/05/26 07:33:38;;;;;;;9.85;4.75;;;;;;;33.29;35.33;100436.31;5104575;28;20015;-77
2023/05/26 07:36:04;;;;;;;14.60;7.03;;;;;;;34.00;32.98;100438.66;5103667;28;20024;-77
2023/05/26 07:38:29;;;;;;;10.93;5.45;;;;;;;34.44;33.56;100443.47;5103172;28;20024;-77
2023/05/26 07:40:55;;;;;;;8.20;4.85;;;;;;;35.13;33.17;100447.59;5103508;28;20564;-77
2023/05/26 07:43:20;;;;;;;9.48;4.65;;;;;;;35.51;31.36;100424.34;5095520;28;20034;-77
2023/05/26 07:45:46;;;;;;;10.55;5.07;;;;;;;36.08;31.59;100445.09;5099628;28;20490;-77
2023/05/26 07:48:11;;;;;;;12.27;5.82;;;;;;;36.13;31.07;100415.44;5062618;28;20169;-77
2023/05/26 07:50:36;;;;;;;11.40;5.97;;;;;;;36.20;30.73;100442.53;5098211;28;20048;-77
2023/05/26 07:53:02;;;;;;;15.30;6.32;;;;;;;36.28;30.92;100436.78;5105351;28;20054;-77
2023/05/26 07:55:27;;;;;;;11.48;5.40;;;;;;;36.44;31.18;100440.84;5100678;28;20020;-77
2023/05/26 07:57:52;;;;;;;11.65;5.35;;;;;;;36.64;31.03;100435.28;5094358;28;20028;-78
2023/05/26 08:00:18;;;;;;;9.50;5.20;;;;;;;36.78;30.50;100428.66;5094478;28;20475;-77
2023/05/26 08:02:43;;;;;;;12.27;5.68;;;;;;;36.70;30.35;100437.94;5094441;28;20426;-78
2023/05/26 08:05:09;;;;;;;9.68;5.55;;;;;;;35.65;31.01;100445.75;5094551;28;20464;-77
2023/05/26 08:07:34;;;;;;;9.25;4.95;;;;;;;34.75;32.10;100442.84;5094432;28;20463;-77
2023/05/26 08:09:59;;;;;;;12.85;5.10;;;;;;;33.75;33.52;100427.53;5094209;28;20468;-76
2023/05/26 08:12:25;;;;;;;11.68;5.72;;;;;;;32.62;34.22;100434.22;5094281;28;20031;-77
2023/05/26 08:14:50;;;;;;;11.35;5.57;;;;;;;31.28;35.54;100429.25;5093721;28;20063;-76
2023/05/26 08:17:16;;;;;;;12.20;5.13;;;;;;;30.07;35.67;100438.25;5094291;28;20058;-76
2023/05/26 08:19:41;;;;;;;10.55;5.13;;;;;;;29.04;37.47;100424.16;5093862;28;20459;-76
2023/05/26 08:22:07;;;;;;;12.98;5.57;;;;;;;28.29;38.09;100430.56;5094224;28;20056;-76
2023/05/26 08:24:32;;;;;;;14.30;5.60;;;;;;;27.54;39.65;100432.41;5094467;28;20434;-76
2023/05/26 08:26:58;;;;;;;12.15;5.78;;;;;;;27.21;39.83;100439.47;5093719;28;20027;-76
2023/05/26 08:29:23;;;;;;;14.13;5.90;;;;;;;26.52;41.07;100419.81;5093862;28;20456;-76
2023/05/26 08:31:49;;;;;;;14.93;5.78;;;;;;;26.27;41.17;100448.13;5093775;28;20498;-76
2023/05/26 08:34:15;;;;;;;13.55;6.03;;;;;;;25.85;41.99;100424.69;5093899;28;20032;-76
2023/05/26 08:36:41;;;;;;;12.30;5.32;;;;;;;25.95;42.49;100438.78;5111080;28;20028;-76
2023/05/26 08:39:06;;;;;;;15.35;5.70;;;;;;;25.93;42.43;100443.47;5114107;28;20027;-76
2023/05/26 08:41:55;;;;;;;12.23;5.38;;;;;;;25.74;41.95;100451.53;5113451;28;20024;-76
2023/05/26 08:44:21;;;;;;;14.07;5.50;;;;;;;25.41;42.63;100428.97;5077920;28;20046;-76
2023/05/26 08:46:55;;;;;;;11.30;5.30;;;;;;;25.29;42.79;100445.19;5113933;28;20028;-76
2023/05/26 08:49:21;;;;;;;12.00;5.80;;;;;;;25.01;43.29;100420.28;5114093;28;20111;-76
2023/05/26 08:51:55;;;;;;;13.02;5.10;;;;;;;24.89;44.03;100414.28;5114068;28;20056;-76
2023/05/26 08:54:20;;;;;;;16.35;6.00;;;;;;;24.62;44.43;100391.09;5113621;28;20536;-76
2023/05/26 08:56:47;;;;;;;13.00;5.38;;;;;;;24.70;43.71;100418.84;5077493;28;20031;-76
2023/05/26 08:59:15;;;;;;;10.65;5.50;;;;;;;24.48;44.63;100390.69;5113861;28;20273;-76
2023/05/26 09:01:40;;;;;;;15.02;5.70;;;;;;;24.53;44.34;100417.75;5113947;28;20505;-76
2023/05/26 09:04:06;;;;;;;17.98;5.07;;;;;;;24.46;43.35;100408.66;5113879;28;20055;-76
2023/05/26 09:06:33;;;;;;;16.65;5.30;;;;;;;24.49;44.25;100417.19;5113742;28;20019;-75
2023/05/26 09:08:59;;;;;;;13.50;4.88;;;;;;;24.64;44.36;100428.25;5113260;28;20035;-76
2023/05/26 09:11:27;;;;;;;14.98;5.13;;;;;;;24.67;44.04;100421.78;5113659;28;20406;-75
2023/05/26 09:13:55;;;;;;;15.90;5.63;;;;;;;24.72;43.82;100425.69;5112746;28;20480;-75
2023/05/26 09:16:25;;;;;;;13.60;5.00;;;;;;;24.59;43.99;100430.50;5112697;28;20103;-76
2023/05/26 09:18:58;;;;;;;10.88;5.15;;;;;;;24.53;43.89;100429.25;5112293;28;20532;-76
2023/05/26 09:21:25;;;;;;;11.75;5.35;;;;;;;24.48;44.44;100434.16;5112390;28;20106;-76
2023/05/26 09:23:55;;;;;;;13.73;5.15;;;;;;;24.18;44.62;100397.00;5112442;28;20035;-76
2023/05/26 09:26:35;;;;;;;13.77;4.88;;;;;;;23.96;44.00;100416.75;5112460;28;20023;-75
2023/05/26 09:29:02;;;;;;;9.82;4.60;;;;;;;23.69;45.31;100417.44;5112227;28;20067;-76
2023/05/26 09:31:45;;;;;;;13.13;5.00;;;;;;;23.71;45.74;100434.91;5112389;28;20026;-76
2023/05/26 09:34:11;;;;;;;14.75;5.50;;;;;;;23.70;45.37;100430.59;5112374;28;20089;-76
2023/05/26 09:36:38;;;;;;;15.00;5.90;;;;;;;23.74;45.36;100437.31;5112446;28;20115;-76
2023/05/26 09:39:07;;;;;;;8.75;4.40;;;;;;;23.59;43.99;100406.72;5112100;28;20073;-76
2023/05/26 09:41:42;;;;;;;11.18;4.80;;;;;;;23.61;43.96;100423.41;5112172;28;20034;-76
2023/05/26 09:44:12;;;;;;;11.52;5.53;;;;;;;23.54;44.49;100422.25;5112089;28;20080;-76
2023/05/26 09:46:39;;;;;;;14.03;5.17;;;;;;;23.45;44.68;100415.09;5112105;28;20483;-76
2023/05/26 09:49:12;;;;;;;14.25;5.35;;;;;;;23.44;43.97;100424.91;5112051;28;20586;-76
2023/05/26 09:51:40;;;;;;;14.50;5.70;;;;;;;23.39;44.31;100437.75;5111619;28;20069;-76
2023/05/26 09:54:05;;;;;;;11.18;5.13;;;;;;;23.30;44.49;100434.09;5111511;28;20027;-75
2023/05/26 09:56:36;;;;;;;12.13;4.97;;;;;;;23.02;45.18;100421.50;5111977;28;20032;-75
2023/05/26 09:59:05;;;;;;;11.90;4.75;;;;;;;22.79;44.54;100397.72;5111646;28;20059;-76
2023/05/26 10:01:36;;;;;;;12.32;5.07;;;;;;;22.65;45.21;100400.72;5111929;28;20035;-76
2023/05/26 10:04:06;;;;;;;10.63;4.55;;;;;;;22.46;45.87;100380.22;5111748;28;20031;-76
2023/05/26 10:06:34;;;;;;;11.90;5.05;;;;;;;22.61;45.29;100394.81;5111755;28;20034;-76
2023/05/26 10:09:00;;;;;;;12.48;4.60;;;;;;;22.74;45.61;100418.53;5111509;28;20028;-76
2023/05/26 10:11:28;;;;;;;12.85;4.50;;;;;;;22.72;45.54;100401.06;5111592;28;20114;-76
2023/05/26 10:13:54;;;;;;;8.82;4.68;;;;;;;22.95;43.15;100412.38;5072023;28;1118821;-76
2023/05/26 10:16:21;;;;;;;9.25;4.82;;;;;;;22.55;44.42;100400.69;5112706;28;20059;-76
2023/05/26 10:18:47;;;;;;;11.98;4.80;;;;;;;22.57;44.94;100395.22;5094088;28;20455;-76
2023/05/26 10:21:15;;;;;;;11.75;5.32;;;;;;;22.66;46.31;100400.59;5112767;28;20028;-76
2023/05/26 10:23:58;;;;;;;10.10;4.75;;;;;;;22.74;45.36;100401.75;5112289;28;20031;-76
2023/05/26 10:26:29;;;;;;;11.63;4.55;;;;;;;22.81;44.86;100409.06;5112463;28;20020;-76
2023/05/26 10:29:05;;;;;;;11.65;5.18;;;;;;;22.89;43.86;100411.91;5112191;28;20031;-76
2023/05/26 10:31:34;;;;;;;9.63;4.18;;;;;;;22.90;45.57;100391.53;5112220;28;20015;-76
2023/05/26 10:34:00;;;;;;;11.60;5.00;;;;;;;23.16;45.59;100418.50;5111835;28;20031;-76
2023/05/26 10:36:26;;;;;;;12.50;4.78;;;;;;;22.99;45.02;100396.03;5112109;28;20039;-76
2023/05/26 10:38:53;;;;;;;8.38;4.05;;;;;;;22.99;45.00;100397.84;5112048;28;20028;-76
2023/05/26 10:41:32;;;;;;;11.52;4.70;;;;;;;23.04;44.26;100390.31;5112308;28;20049;-76
2023/05/26 10:43:59;;;;;;;12.25;5.07;;;;;;;23.01;43.64;100388.78;5111983;28;20032;-76
2023/05/26 10:46:42;;;;;;;11.50;4.82;;;;;;;22.91;41.96;100390.53;5112091;28;20613;-76
2023/05/26 10:49:21;;;;;;;8.10;3.63;;;;;;;22.94;40.92;100416.84;5111774;28;20106;-76
2023/05/26 10:51:56;;;;;;;10.32;4.72;;;;;;;22.57;42.53;100388.09;5059522;28;20036;-76
2023/05/26 10:54:24;;;;;;;9.10;4.25;;;;;;;22.63;42.69;100403.53;5112007;28;20031;-76
2023/05/26 10:56:52;;;;;;;9.48;4.63;;;;;;;22.37;43.80;100386.28;5111761;28;20020;-76
2023/05/26 10:59:22;;;;;;;11.25;4.57;;;;;;;22.49;44.99;100395.88;5111848;28;20024;-76
2023/05/26 11:01:52;;;;;;;10.95;4.07;;;;;;;22.61;45.06;100409.91;5111942;28;20518;-76
2023/05/26 11:04:18;;;;;;;10.10;3.92;;;;;;;22.54;45.16;100384.84;5113306;28;20490;-76
2023/05/26 11:06:50;;;;;;;8.65;4.10;;;;;;;22.63;45.94;100392.91;5115974;28;20024;-76
2023/05/26 11:09:15;;;;;;;9.50;4.13;;;;;;;22.87;46.44;100415.66;5108276;28;20045;-77
2023/05/26 11:11:50;;;;;;;10.40;4.78;;;;;;;22.84;44.91;100387.56;5095448;28;20028;-77
2023/05/26 11:14:20;;;;;;;11.95;5.10;;;;;;;22.91;44.67;100411.78;5099940;28;20053;-77